Time;durP1;ratioP1;P1;durP2;ratioP2;P2;SDS_P1;SDS_P2;PMS_P1;PMS_P2;Temp;Humidity;BMP_temperature;BMP_pressure;BME280_temperature;BME280_humidity;BME280_pressure;Samples;Min_cycle;Max_cycle;Signal;HPM_P1;HPM_P2
2023/12/12 00:00:35;;;;;;;9.40;4.25;;;7.90;99.90;;;;;;5009191;28;20392;-94
2023/12/12 00:03:01;;;;;;;8.70;3.33;;;8.00;99.90;;;;;;5002806;28;20038;-95
2023/12/12 00:05:27;;;;;;;10.43;4.90;;;8.00;99.90;;;;;;4988507;28;20031;-94
2023/12/12 00:07:53;;;;;;;12.40;4.80;;;8.00;99.90;;;;;;4989018;28;20049;-94
2023/12/12 00:10:18;;;;;;;11.45;4.05;;;8.00;99.90;;;;;;5011452;28;20033;-95
2023/12/12 00:12:44;;;;;;;17.23;5.47;;;8.00;99.90;;;;;;5012636;28;20022;-95
2023/12/12 00:15:10;;;;;;;11.30;4.65;;;8.00;99.90;;;;;;5018397;28;20044;-93
2023/12/12 00:17:37;;;;;;;7.90;3.42;;;8.10;99.90;;;;;;5009376;28;20030;-93
2023/12/12 00:20:07;;;;;;;17.55;5.18;;;8.10;99.90;;;;;;5009266;28;20014;-95
2023/12/12 00:22:33;;;;;;;10.05;4.13;;;8.10;99.90;;;;;;5000222;28;20019;-92
2023/12/12 00:24:58;;;;;;;12.80;4.75;;;8.10;99.90;;;;;;5001436;28;20026;-93
2023/12/12 00:27:24;;;;;;;15.20;4.65;;;8.10;99.90;;;;;;5021934;28;20022;-95
2023/12/12 00:29:49;;;;;;;12.07;3.33;;;8.10;99.90;;;;;;5022730;28;20101;-95
2023/12/12 00:32:15;;;;;;;11.05;4.25;;;8.10;99.90;;;;;;5007871;28;20025;-95
2023/12/12 00:34:41;;;;;;;15.70;3.97;;;8.10;99.90;;;;;;4987933;28;20027;-93
2023/12/12 00:37:07;;;;;;;12.43;4.00;;;8.10;99.90;;;;;;5009347;28;20037;-95
2023/12/12 00:39:39;;;;;;;9.52;3.80;;;8.00;99.90;;;;;;5008630;28;20026;-95
2023/12/12 00:42:08;;;;;;;7.78;2.90;;;8.00;99.90;;;;;;5007712;28;20011;-94
2023/12/12 00:44:35;;;;;;;12.60;5.15;;;8.00;99.90;;;;;;4993240;28;20019;-94
2023/12/12 00:47:00;;;;;;;13.75;4.40;;;8.00;99.90;;;;;;5025912;28;20024;-95
2023/12/12 00:49:26;;;;;;;9.15;4.80;;;8.00;99.90;;;;;;5013178;28;20038;-94
2023/12/12 00:51:52;;;;;;;10.93;4.47;;;8.00;99.90;;;;;;5032389;28;20507;-95
2023/12/12 00:54:17;;;;;;;11.13;4.30;;;8.00;99.90;;;;;;5031807;28;20025;-94
2023/12/12 00:56:47;;;;;;;12.50;3.80;;;8.10;99.90;;;;;;5015006;28;20026;-94
2023/12/12 00:59:13;;;;;;;8.18;5.25;;;8.10;99.90;;;;;;5010208;28;20397;-94
2023/12/12 01:01:39;;;;;;;12.48;3.28;;;8.10;99.90;;;;;;5017810;28;20026;-94
2023/12/12 01:04:05;;;;;;;12.65;3.35;;;8.10;99.90;;;;;;5005705;28;20126;-94
2023/12/12 01:06:31;;;;;;;9.32;3.53;;;8.10;99.90;;;;;;4994027;28;20027;-93
2023/12/12 01:08:57;;;;;;;10.38;3.88;;;8.00;99.90;;;;;;5010231;28;20029;-94
2023/12/12 01:11:22;;;;;;;8.73;3.63;;;8.00;99.90;;;;;;5004133;28;20097;-93
2023/12/12 01:13:48;;;;;;;12.65;4.03;;;7.90;99.90;;;;;;5013360;28;20023;-94
2023/12/12 01:16:14;;;;;;;15.93;4.22;;;7.90;99.90;;;;;;5022095;28;20053;-95
2023/12/12 01:18:39;;;;;;;13.95;3.72;;;7.90;99.90;;;;;;5031472;28;20030;-93
2023/12/12 01:21:05;;;;;;;10.98;3.67;;;7.90;99.90;;;;;;5032765;28;20022;-94
2023/12/12 01:23:55;;;;;;;9.93;5.05;;;7.90;99.90;;;;;;5028608;28;20472;-95
2023/12/12 01:26:22;;;;;;;9.50;4.60;;;7.90;99.90;;;;;;5011162;28;20065;-94
2023/12/12 01:28:48;;;;;;;15.57;4.22;;;7.80;99.90;;;;;;5016514;28;20044;-94
2023/12/12 01:31:15;;;;;;;14.40;4.28;;;7.80;99.90;;;;;;5010491;28;20033;-94
2023/12/12 01:33:41;;;;;;;14.68;4.68;;;7.80;99.90;;;;;;4990456;28;20030;-93
2023/12/12 01:36:07;;;;;;;7.50;3.20;;;7.80;99.90;;;;;;4991310;28;20027;-93
2023/12/12 01:38:33;;;;;;;9.75;4.43;;;7.80;99.90;;;;;;5030455;28;20041;-94
2023/12/12 01:40:58;;;;;;;12.23;4.18;;;7.70;99.90;;;;;;4994650;28;20022;-94
2023/12/12 01:43:25;;;;;;;9.82;2.88;;;7.70;99.90;;;;;;5010859;28;20053;-94
2023/12/12 01:46:00;;;;;;;11.68;4.10;;;7.70;99.90;;;;;;5012775;28;20034;-93
2023/12/12 01:48:28;;;;;;;10.02;3.17;;;7.60;99.90;;;;;;5011268;28;20019;-95
2023/12/12 01:50:53;;;;;;;13.63;3.60;;;7.60;99.90;;;;;;5009027;28;20018;-94
2023/12/12 01:53:23;;;;;;;7.88;3.67;;;7.60;99.90;;;;;;5018443;28;20036;-93
2023/12/12 01:55:50;;;;;;;9.70;4.13;;;7.60;99.90;;;;;;5005428;28;20068;-96
2023/12/12 01:58:17;;;;;;;15.48;3.50;;;7.60;99.90;;;;;;5001663;28;20027;-95
2023/12/12 02:00:43;;;;;;;7.47;3.50;;;7.60;99.90;;;;;;4990215;28;20027;-94
2023/12/12 02:03:10;;;;;;;8.27;3.30;;;7.50;99.90;;;;;;4991076;28;20053;-93
2023/12/12 02:05:39;;;;;;;11.27;4.25;;;7.50;99.90;;;;;;5028595;28;20113;-94
2023/12/12 02:08:05;;;;;;;10.73;4.18;;;7.50;99.90;;;;;;5027474;28;20025;-94
2023/12/12 02:10:31;;;;;;;12.95;3.78;;;7.50;99.90;;;;;;5007838;28;20026;-94
2023/12/12 02:12:57;;;;;;;10.85;5.10;;;7.60;99.90;;;;;;5001187;28;20424;-94
2023/12/12 02:15:23;;;;;;;14.00;4.47;;;7.60;99.90;;;;;;5027071;28;20033;-95
2023/12/12 02:17:49;;;;;;;11.20;2.67;;;7.50;99.90;;;;;;4996859;28;20089;-94
2023/12/12 02:20:15;;;;;;;9.13;5.28;;;7.40;99.90;;;;;;4990777;28;20035;-95
2023/12/12 02:22:42;;;;;;;15.45;4.38;;;7.30;99.90;;;;;;4990659;28;20033;-94
2023/12/12 02:25:10;;;;;;;16.00;3.75;;;7.30;99.90;;;;;;5004772;28;20027;-93
2023/12/12 02:27:37;;;;;;;11.52;4.25;;;7.30;99.90;;;;;;5009705;28;20023;-95
2023/12/12 02:30:05;;;;;;;5.53;3.63;;;7.30;99.90;;;;;;5008965;28;20057;-94
2023/12/12 02:32:31;;;;;;;8.07;2.83;;;7.20;99.90;;;;;;4991869;28;20037;-94
2023/12/12 02:34:57;;;;;;;14.25;3.92;;;7.20;99.90;;;;;;5002700;28;20022;-94
2023/12/12 02:37:22;;;;;;;14.63;4.43;;;7.20;99.90;;;;;;5006466;28;20022;-94
2023/12/12 02:39:48;;;;;;;10.65;3.83;;;7.30;99.90;;;;;;5009148;28;20117;-92
2023/12/12 02:42:14;;;;;;;10.70;3.40;;;7.30;99.90;;;;;;5001102;28;20042;-93
2023/12/12 02:44:39;;;;;;;12.25;4.50;;;7.30;99.90;;;;;;5017737;28;20027;-94
2023/12/12 02:47:05;;;;;;;12.68;4.35;;;7.20;99.90;;;;;;5008877;28;20054;-95
2023/12/12 02:49:30;;;;;;;8.25;3.13;;;7.20;99.90;;;;;;5025647;28;20030;-93
2023/12/12 02:51:56;;;;;;;12.32;3.80;;;7.20;99.90;;;;;;5020078;28;20030;-92
2023/12/12 02:54:22;;;;;;;12.38;4.80;;;7.20;99.90;;;;;;5008124;28;20019;-94
2023/12/12 02:56:50;;;;;;;8.77;3.80;;;7.20;99.90;;;;;;4999501;28;20022;-94
2023/12/12 02:59:16;;;;;;;14.43;3.63;;;7.20;99.90;;;;;;5001394;28;20035;-95
2023/12/12 03:01:42;;;;;;;8.02;3.75;;;7.30;99.90;;;;;;4993289;28;20018;-94
2023/12/12 03:04:07;;;;;;;13.63;3.55;;;7.20;99.90;;;;;;5009549;28;20053;-93
2023/12/12 03:06:33;;;;;;;11.32;3.95;;;7.10;99.90;;;;;;4989145;28;20042;-95
2023/12/12 03:08:58;;;;;;;15.45;3.65;;;7.00;99.90;;;;;;4996985;28;20029;-95
2023/12/12 03:11:24;;;;;;;8.07;3.97;;;7.00;99.90;;;;;;4999218;28;20042;-91
2023/12/12 03:13:50;;;;;;;14.82;5.85;;;6.90;99.90;;;;;;5009859;28;20033;-92
2023/12/12 03:16:15;;;;;;;10.57;4.60;;;6.90;99.90;;;;;;5009375;28;20446;-94
2023/12/12 03:18:42;;;;;;;13.85;4.22;;;6.90;99.90;;;;;;5009246;28;20026;-94
2023/12/12 03:21:08;;;;;;;11.95;4.75;;;6.80;99.90;;;;;;5006134;28;20030;-94
2023/12/12 03:23:34;;;;;;;9.93;4.07;;;6.80;99.90;;;;;;5000360;28;20080;-94
2023/12/12 03:26:08;;;;;;;12.48;3.78;;;6.80;99.90;;;;;;5008496;28;20034;-94
2023/12/12 03:28:37;;;;;;;11.02;4.05;;;6.80;99.90;;;;;;5017169;28;20057;-93
2023/12/12 03:31:04;;;;;;;11.75;4.72;;;6.80;99.90;;;;;;5004965;28;20058;-93
2023/12/12 03:33:29;;;;;;;11.77;4.78;;;6.80;99.90;;;;;;5023900;28;20054;-94
2023/12/12 03:35:55;;;;;;;14.23;5.47;;;6.80;99.90;;;;;;5009569;28;20058;-92
2023/12/12 03:38:20;;;;;;;16.98;4.97;;;6.80;99.90;;;;;;5005328;28;20031;-95
2023/12/12 03:40:46;;;;;;;13.25;6.32;;;6.80;99.90;;;;;;4993954;28;20031;-94
2023/12/12 03:43:15;;;;;;;11.20;4.57;;;6.60;99.90;;;;;;5023208;28;20022;-93
2023/12/12 03:45:42;;;;;;;11.45;4.40;;;6.70;99.90;;;;;;5006854;28;20056;-95
2023/12/12 03:48:08;;;;;;;9.63;4.90;;;6.60;99.90;;;;;;5010387;28;20037;-92
2023/12/12 03:50:34;;;;;;;10.27;3.88;;;6.60;99.90;;;;;;5026058;28;20033;-93
2023/12/12 03:52:59;;;;;;;10.05;3.88;;;6.60;99.90;;;;;;4994943;28;20038;-94
2023/12/12 03:55:25;;;;;;;8.00;4.10;;;6.60;99.90;;;;;;5006016;28;20041;-94
2023/12/12 03:57:51;;;;;;;10.10;4.25;;;6.50;99.90;;;;;;5008894;28;20030;-94
2023/12/12 04:00:16;;;;;;;10.13;3.85;;;6.50;99.90;;;;;;5016400;28;20061;-95
2023/12/12 04:02:42;;;;;;;9.02;4.22;;;6.50;99.90;;;;;;5004312;28;20033;-95
2023/12/12 04:05:09;;;;;;;9.40;5.15;;;6.50;99.90;;;;;;5013383;28;20030;-95
2023/12/12 04:07:37;;;;;;;10.75;6.00;;;6.50;99.90;;;;;;4990932;28;20027;-94
2023/12/12 04:10:05;;;;;;;11.77;6.35;;;6.50;99.90;;;;;;4998200;28;20022;-94
2023/12/12 04:12:33;;;;;;;12.07;4.35;;;6.50;99.90;;;;;;5009396;28;20590;-95
2023/12/12 04:14:59;;;;;;;12.05;4.40;;;6.50;99.90;;;;;;5022981;28;20018;-93
2023/12/12 04:17:25;;;;;;;14.90;4.50;;;6.50;99.90;;;;;;5020298;28;20022;-94
2023/12/12 04:19:50;;;;;;;10.65;3.80;;;6.60;99.90;;;;;;5014679;28;20006;-94
2023/12/12 04:22:19;;;;;;;10.10;3.53;;;6.50;99.90;;;;;;5008682;28;20022;-94
2023/12/12 04:24:45;;;;;;;10.43;3.67;;;6.50;99.90;;;;;;5030028;28;20028;-95
2023/12/12 04:27:11;;;;;;;7.68;4.32;;;6.50;99.90;;;;;;5026438;28;20065;-94
2023/12/12 04:29:37;;;;;;;8.48;4.68;;;6.50;99.90;;;;;;5008269;28;20504;-94
2023/12/12 04:32:06;;;;;;;12.77;3.78;;;6.60;99.90;;;;;;5008688;28;20033;-94
2023/12/12 04:34:34;;;;;;;7.53;4.38;;;6.60;99.90;;;;;;4988544;28;20027;-94
2023/12/12 04:37:01;;;;;;;;;;;6.60;99.90;;;;;;4989669;28;20049;-95
2023/12/12 04:39:27;;;;;;;9.80;5.13;;;6.70;99.90;;;;;;4988227;28;19906;-92
2023/12/12 04:42:00;;;;;;;5.75;4.18;;;6.70;99.90;;;;;;4992101;28;20019;-94
2023/12/12 04:44:26;;;;;;;9.20;3.58;;;6.70;99.90;;;;;;5008727;28;20046;-93
2023/12/12 04:46:54;;;;;;;7.78;4.25;;;6.60;99.90;;;;;;4992190;28;20030;-93
2023/12/12 04:49:20;;;;;;;;;;;6.60;99.90;;;;;;4992781;28;20496;-94
2023/12/12 04:51:46;;;;;;;10.48;6.05;;;6.60;99.90;;;;;;5015991;28;20503;-94
2023/12/12 04:54:12;;;;;;;8.77;4.82;;;6.70;99.90;;;;;;5024770;28;20057;-94
2023/12/12 04:56:40;;;;;;;9.10;3.53;;;6.70;99.90;;;;;;5013297;28;20045;-93
2023/12/12 04:59:06;;;;;;;8.60;3.92;;;6.70;99.90;;;;;;5007536;28;20109;-94
2023/12/12 05:01:31;;;;;;;12.23;5.20;;;6.70;99.90;;;;;;5002422;28;20031;-94
2023/12/12 05:03:57;;;;;;;10.73;4.72;;;6.60;99.90;;;;;;4987834;28;20031;-93
2023/12/12 05:06:23;;;;;;;7.75;3.53;;;6.60;99.90;;;;;;4988647;28;20029;-93
2023/12/12 05:08:49;;;;;;;12.77;4.88;;;6.70;99.90;;;;;;4988226;28;20552;-92
2023/12/12 05:11:16;;;;;;;9.48;4.80;;;6.70;99.90;;;;;;5020294;28;20022;-94
2023/12/12 05:13:41;;;;;;;11.05;4.45;;;6.70;99.90;;;;;;5007455;28;20080;-93
2023/12/12 05:16:08;;;;;;;8.07;4.47;;;6.80;99.90;;;;;;5013254;28;20030;-93
2023/12/12 05:19:04;;;;;;;8.93;4.47;;;6.80;99.90;;;;;;4993751;28;20022;-93
2023/12/12 05:21:47;;;;;;;9.05;3.90;;;6.80;99.90;;;;;;5003557;28;20042;-93
2023/12/12 05:24:45;;;;;;;13.60;8.23;;;6.80;99.90;;;;;;5001835;28;20034;-95
2023/12/12 05:27:18;;;;;;;11.23;7.47;;;6.80;99.90;;;;;;4998215;28;20069;-94
2023/12/12 05:30:08;;;;;;;12.95;7.80;;;6.90;99.90;;;;;;4996302;28;20402;-93
2023/12/12 05:33:17;;;;;;;25.35;11.48;;;6.90;99.90;;;;;;4987926;28;20035;-92
2023/12/12 05:36:27;;;;;;;50.15;20.48;;;7.10;99.90;;;;;;4987890;28;20572;-93
2023/12/12 05:38:45;;;;;;;15.60;7.68;;;7.10;99.90;;;;;;5006264;28;20037;-95
2023/12/12 05:41:27;;;;;;;13.85;4.72;;;7.10;99.90;;;;;;5011612;28;20085;-94
2023/12/12 05:43:55;;;;;;;13.52;7.80;;;7.00;99.90;;;;;;5009152;28;20031;-93
2023/12/12 05:46:39;;;;;;;;;;;;;;;;;;;;;
2023/12/12 05:49:15;;;;;;;14.77;7.20;;;7.10;99.90;;;;;;5009278;28;20573;-93
2023/12/12 05:52:00;;;;;;;17.75;7.72;;;7.10;99.90;;;;;;5008170;28;20026;-93
2023/12/12 05:54:37;;;;;;;11.55;6.78;;;7.10;99.90;;;;;;5008644;28;20035;-93
2023/12/12 05:57:07;;;;;;;13.45;7.18;;;7.10;99.90;;;;;;4994807;28;20117;-93
2023/12/12 05:59:56;;;;;;;16.38;8.20;;;7.10;99.90;;;;;;4972991;28;20031;-93
2023/12/12 06:02:35;;;;;;;17.25;7.97;;;7.10;99.90;;;;;;4971430;28;20062;-94
2023/12/12 06:05:33;;;;;;;16.75;6.35;;;7.20;99.90;;;;;;4987823;28;20042;-94
2023/12/12 06:08:09;;;;;;;12.07;6.03;;;7.20;99.90;;;;;;4991835;28;20023;-94
2023/12/12 06:10:42;;;;;;;10.10;5.88;;;7.10;99.90;;;;;;5003304;28;20677;-94
2023/12/12 06:13:29;;;;;;;9.85;5.32;;;7.20;99.90;;;;;;5003236;28;20038;-94
2023/12/12 06:16:04;;;;;;;10.60;5.50;;;7.20;99.90;;;;;;4986866;28;20111;-94
2023/12/12 06:18:30;;;;;;;11.15;4.97;;;7.10;99.90;;;;;;5007534;28;20117;-93
2023/12/12 06:21:02;;;;;;;12.07;5.05;;;7.10;99.90;;;;;;4993656;28;20026;-94
2023/12/12 06:24:22;;;;;;;19.05;8.85;;;7.10;99.90;;;;;;5010977;28;20042;-93
2023/12/12 06:27:35;;;;;;;18.58;8.40;;;7.00;99.90;;;;;;4984414;28;20181;-93
2023/12/12 06:30:22;;;;;;;12.57;7.22;;;7.10;99.90;;;;;;4991191;28;20030;-94
2023/12/12 06:33:05;;;;;;;15.27;8.50;;;7.20;99.90;;;;;;4981022;28;20171;-93
2023/12/12 06:35:40;;;;;;;18.35;8.15;;;7.20;99.90;;;;;;5013128;23;20041;-96
2023/12/12 06:38:08;;;;;;;13.95;9.38;;;7.20;99.90;;;;;;5008119;28;20034;-95
2023/12/12 06:40:46;;;;;;;10.77;5.40;;;7.20;99.90;;;;;;5006789;28;20014;-95
2023/12/12 06:43:22;;;;;;;10.23;5.65;;;7.10;99.90;;;;;;5007316;28;20022;-93
2023/12/12 06:45:58;;;;;;;12.30;7.15;;;7.10;99.90;;;;;;5004514;28;20041;-96
2023/12/12 06:48:27;;;;;;;10.10;5.75;;;7.00;99.90;;;;;;5006628;28;20022;-96
2023/12/12 06:51:09;;;;;;;10.25;5.90;;;7.00;99.90;;;;;;5009850;28;20178;-96
2023/12/12 06:53:46;;;;;;;9.82;4.50;;;7.10;99.90;;;;;;5007873;28;20058;-96
2023/12/12 06:56:21;;;;;;;10.80;5.97;;;7.10;99.90;;;;;;5005059;28;20165;-95
2023/12/12 06:58:58;;;;;;;11.18;4.60;;;7.10;99.90;;;;;;5030187;28;20034;-96
2023/12/12 07:01:53;;;;;;;11.18;5.18;;;7.10;99.90;;;;;;5009836;23;20075;-95
2023/12/12 07:04:23;;;;;;;9.13;5.28;;;7.10;99.90;;;;;;4967831;28;20028;-96
2023/12/12 07:06:49;;;;;;;12.52;5.68;;;7.00;99.90;;;;;;4966646;28;20059;-95
2023/12/12 07:09:17;;;;;;;11.65;6.30;;;7.10;99.90;;;;;;4971344;28;20023;-95
2023/12/12 07:11:57;;;;;;;16.10;5.22;;;7.10;99.90;;;;;;4962532;28;20079;-95
2023/12/12 07:14:23;;;;;;;12.43;4.85;;;7.10;99.90;;;;;;4948766;28;20036;-96
2023/12/12 07:16:52;;;;;;;15.00;6.07;;;7.10;99.90;;;;;;4946391;29;20383;-96
2023/12/12 07:19:28;;;;;;;16.83;7.38;;;7.10;99.90;;;;;;4950270;28;20043;-96
2023/12/12 07:31:10;;;;;;;13.88;7.55;;;7.20;99.90;;;;;;4967165;28;20057;-91
2023/12/12 07:33:48;;;;;;;12.00;6.25;;;7.20;99.90;;;;;;4949299;28;20217;-92
2023/12/12 08:19:59;;;;;;;8.05;5.75;;;7.60;99.90;;;;;;4968909;28;20065;-93
2023/12/12 08:22:37;;;;;;;11.02;6.25;;;7.60;99.90;;;;;;4956659;29;20023;-93
2023/12/12 08:28:54;;;;;;;9.82;5.88;;;7.70;99.90;;;;;;4946749;29;20121;-92
2023/12/12 08:35:05;;;;;;;8.88;4.65;;;7.70;99.90;;;;;;4977739;28;20022;-92
2023/12/12 08:38:17;;;;;;;10.30;4.78;;;7.70;99.90;;;;;;4965935;28;20031;-91
2023/12/12 08:43:46;;;;;;;8.73;4.47;;;7.80;99.90;;;;;;5167347;23;20227;-94
2023/12/12 08:46:15;;;;;;;8.43;5.68;;;7.90;99.90;;;;;;4915106;29;20266;-95
2023/12/12 08:48:41;;;;;;;8.45;4.80;;;7.90;99.90;;;;;;4938687;29;20039;-91
2023/12/12 08:54:12;;;;;;;10.98;5.13;;;8.00;99.90;;;;;;4593678;23;20115;-95
2023/12/12 08:56:51;;;;;;;10.65;4.22;;;8.00;99.90;;;;;;4968851;28;20055;-94
2023/12/12 08:59:24;;;;;;;8.57;4.13;;;8.10;99.90;;;;;;4970514;29;20027;-96
2023/12/12 09:01:51;;;;;;;10.52;4.35;;;8.10;99.90;;;;;;4958261;28;20017;-93
2023/12/12 09:04:21;;;;;;;9.82;7.00;;;8.10;99.90;;;;;;4955076;29;20414;-95
2023/12/12 09:06:54;;;;;;;5.30;3.70;;;8.10;99.90;;;;;;4958659;28;20043;-93
2023/12/12 09:09:27;;;;;;;7.97;4.88;;;8.20;99.90;;;;;;4978057;29;20082;-94
2023/12/12 09:12:00;;;;;;;7.90;4.93;;;8.20;99.90;;;;;;4961423;28;20098;-95
2023/12/12 09:14:32;;;;;;;9.63;4.50;;;8.30;99.90;;;;;;4977400;28;20079;-95
2023/12/12 09:16:58;;;;;;;7.65;3.97;;;8.30;99.90;;;;;;4974511;29;20115;-94
2023/12/12 09:19:24;;;;;;;7.82;3.88;;;8.20;99.90;;;;;;4978274;29;20027;-94
2023/12/12 09:22:00;;;;;;;12.73;9.15;;;8.20;99.90;;;;;;4959536;29;20035;-96
2023/12/12 09:24:27;;;;;;;7.82;4.30;;;8.30;99.90;;;;;;4955794;28;20095;-94
2023/12/12 09:26:58;;;;;;;8.98;4.05;;;8.30;99.90;;;;;;4975943;29;20027;-96
2023/12/12 09:29:28;;;;;;;8.75;4.78;;;8.20;99.90;;;;;;4960198;29;20027;-93
2023/12/12 09:32:01;;;;;;;7.68;4.20;;;8.30;99.90;;;;;;4960289;29;20015;-96
2023/12/12 09:34:47;;;;;;;13.57;6.47;;;8.30;99.90;;;;;;4944608;28;20074;-94
2023/12/12 09:37:13;;;;;;;12.65;5.57;;;8.40;99.90;;;;;;4958240;28;20031;-96
2023/12/12 09:39:42;;;;;;;9.07;5.07;;;8.40;99.90;;;;;;4977974;29;20023;-95
2023/12/12 09:42:18;;;;;;;11.05;4.90;;;8.40;99.90;;;;;;4960938;28;20034;-96
2023/12/12 09:45:00;;;;;;;8.27;4.50;;;8.40;99.90;;;;;;4977878;28;20038;-94
2023/12/12 09:47:37;;;;;;;12.75;4.57;;;8.40;99.90;;;;;;4959589;28;20111;-96
2023/12/12 09:50:07;;;;;;;7.93;4.53;;;8.30;99.90;;;;;;4941761;29;20067;-93
2023/12/12 09:52:42;;;;;;;17.05;6.90;;;8.40;99.90;;;;;;4975924;28;20027;-96
2023/12/12 10:08:05;;;;;;;10.68;4.47;;;8.40;99.90;;;;;;2611604;23;20047;-96
2023/12/12 10:10:52;;;;;;;7.95;5.72;;;8.40;99.90;;;;;;4960905;28;20086;-94
2023/12/12 10:13:25;;;;;;;12.32;7.03;;;8.40;99.90;;;;;;4950660;28;20040;-95
2023/12/12 10:15:54;;;;;;;10.85;6.95;;;8.30;99.90;;;;;;5016969;23;20085;-95
2023/12/12 10:18:22;;;;;;;15.93;8.18;;;8.30;99.90;;;;;;4959196;28;20023;-96
2023/12/12 10:23:44;;;;;;;17.60;7.30;;;8.40;99.90;;;;;;5861932;23;20055;-95
2023/12/12 10:26:24;;;;;;;13.90;7.07;;;8.30;99.90;;;;;;4971552;28;20043;-96
2023/12/12 10:28:56;;;;;;;18.38;8.35;;;8.30;99.90;;;;;;4965041;28;20473;-96
2023/12/12 10:31:26;;;;;;;19.58;9.55;;;8.30;99.90;;;;;;5015000;23;20051;-96
2023/12/12 10:33:56;;;;;;;13.98;8.80;;;8.40;99.90;;;;;;4947710;29;20030;-95
2023/12/12 10:36:25;;;;;;;11.60;6.75;;;8.40;99.90;;;;;;4940744;29;20047;-94
2023/12/12 10:38:53;;;;;;;12.77;6.38;;;8.40;99.90;;;;;;4945558;29;20469;-96
2023/12/12 10:41:22;;;;;;;15.07;7.13;;;8.50;99.90;;;;;;4943459;28;20030;-95
2023/12/12 10:43:48;;;;;;;16.00;9.20;;;8.50;99.90;;;;;;4943291;29;20039;-94
2023/12/12 10:46:16;;;;;;;10.50;6.68;;;8.50;99.90;;;;;;4937734;29;20043;-95
2023/12/12 10:48:49;;;;;;;14.43;5.93;;;8.50;99.90;;;;;;4940745;29;20062;-94
2023/12/12 10:51:21;;;;;;;11.55;7.10;;;8.50;99.90;;;;;;4941513;29;20605;-95
2023/12/12 10:53:48;;;;;;;13.55;6.93;;;8.50;99.90;;;;;;4942723;29;20024;-95
2023/12/12 10:56:24;;;;;;;8.95;6.40;;;8.50;99.90;;;;;;4935547;29;20090;-94
2023/12/12 10:58:54;;;;;;;12.52;6.25;;;8.50;99.90;;;;;;4941208;28;20039;-94
2023/12/12 11:01:21;;;;;;;11.48;7.32;;;8.40;99.90;;;;;;4940371;29;20034;-94
2023/12/12 11:03:50;;;;;;;10.93;7.25;;;8.50;99.90;;;;;;4936117;29;20032;-94
2023/12/12 11:06:21;;;;;;;16.77;7.00;;;8.50;99.90;;;;;;4933111;29;20099;-95
2023/12/12 11:08:52;;;;;;;12.93;6.05;;;8.60;99.90;;;;;;4939474;28;20051;-96
2023/12/12 11:11:20;;;;;;;15.05;6.72;;;8.50;99.90;;;;;;4941120;29;20039;-94
2023/12/12 11:13:47;;;;;;;12.57;8.27;;;8.50;99.90;;;;;;4940803;28;20027;-95
2023/12/12 11:16:17;;;;;;;14.43;7.32;;;8.50;99.90;;;;;;4937550;29;20040;-95
2023/12/12 11:18:45;;;;;;;11.18;7.90;;;8.50;99.90;;;;;;4945291;29;20030;-96
2023/12/12 11:23:42;;;;;;;10.35;6.35;;;8.60;99.90;;;;;;4982147;23;20060;-96
2023/12/12 11:26:16;;;;;;;13.50;10.52;;;8.50;99.90;;;;;;4912251;29;20117;-96
2023/12/12 11:28:44;;;;;;;13.25;7.35;;;8.50;99.90;;;;;;4928826;29;20041;-95
2023/12/12 11:31:27;;;;;;;15.13;8.50;;;8.50;99.90;;;;;;4915618;29;20028;-96
2023/12/12 11:34:09;;;;;;;13.48;9.07;;;8.60;99.90;;;;;;4910769;29;20031;-96
2023/12/12 11:36:54;;;;;;;15.80;9.73;;;8.60;99.90;;;;;;4925539;29;20024;-95
2023/12/12 11:39:51;;;;;;;11.82;7.88;;;8.60;99.90;;;;;;4927798;29;20059;-96
2023/12/12 11:42:26;;;;;;;10.60;7.22;;;8.60;99.90;;;;;;4912058;29;20028;-95
2023/12/12 11:44:55;;;;;;;13.90;6.82;;;8.70;99.90;;;;;;4910331;29;20024;-96
2023/12/12 11:47:26;;;;;;;11.50;8.05;;;8.70;99.90;;;;;;4919942;29;20033;-95
2023/12/12 11:50:10;;;;;;;10.20;6.80;;;8.70;99.90;;;;;;4921748;29;20506;-95
2023/12/12 11:52:39;;;;;;;13.15;7.07;;;8.70;99.90;;;;;;4922427;29;20036;-96
2023/12/12 11:55:17;;;;;;;11.77;7.45;;;8.70;99.90;;;;;;4920187;29;20039;-96
2023/12/12 11:57:44;;;;;;;19.23;8.65;;;8.70;99.90;;;;;;4905814;29;20027;-96
2023/12/12 12:00:13;;;;;;;12.48;7.20;;;8.70;99.90;;;;;;4908401;29;20521;-95
2023/12/12 12:02:42;;;;;;;14.10;10.05;;;8.80;99.90;;;;;;4905464;29;20543;-96
2023/12/12 12:05:10;;;;;;;11.07;7.63;;;8.80;99.90;;;;;;4907519;29;20060;-96
2023/12/12 12:07:38;;;;;;;11.52;6.95;;;8.80;99.90;;;;;;4927499;29;20103;-95
2023/12/12 12:10:10;;;;;;;12.88;8.23;;;8.80;99.90;;;;;;4922609;29;20115;-96
2023/12/12 12:12:36;;;;;;;12.75;8.32;;;8.80;99.90;;;;;;4926396;29;20039;-95
2023/12/12 12:15:06;;;;;;;14.23;8.70;;;8.80;99.90;;;;;;4925867;29;20036;-95
2023/12/12 12:17:36;;;;;;;15.30;8.00;;;8.80;99.90;;;;;;4910748;29;20016;-96
2023/12/12 12:20:08;;;;;;;11.02;7.10;;;8.90;99.90;;;;;;4923363;29;20028;-95
2023/12/12 12:22:40;;;;;;;18.13;10.73;;;8.90;99.90;;;;;;4909022;29;20036;-96
2023/12/12 12:25:07;;;;;;;16.42;10.65;;;8.90;99.90;;;;;;4925685;29;20059;-96
2023/12/12 12:27:55;;;;;;;15.88;9.00;;;8.90;99.90;;;;;;4960444;23;20139;-96
2023/12/12 12:30:22;;;;;;;15.43;9.65;;;8.90;99.90;;;;;;4982441;28;20043;-96
2023/12/12 12:33:06;;;;;;;12.38;8.57;;;8.90;99.90;;;;;;4985385;28;20003;-96
2023/12/12 12:35:32;;;;;;;19.85;11.93;;;8.90;99.90;;;;;;4965250;28;20032;-94
2023/12/12 12:37:58;;;;;;;21.20;12.93;;;9.00;99.90;;;;;;4941198;28;20023;-95
2023/12/12 12:40:35;;;;;;;22.85;14.85;;;9.00;99.90;;;;;;4941843;29;20107;-95
2023/12/12 12:43:04;;;;;;;18.52;12.85;;;9.00;99.90;;;;;;4964089;28;20039;-96
2023/12/12 12:45:31;;;;;;;23.00;13.95;;;9.00;99.90;;;;;;4962252;28;20020;-96
2023/12/12 12:47:59;;;;;;;22.95;14.70;;;9.00;99.90;;;;;;4957041;28;20015;-96
2023/12/12 12:50:25;;;;;;;24.90;14.00;;;9.00;99.90;;;;;;4960659;28;20035;-96
2023/12/12 12:52:50;;;;;;;23.08;14.25;;;8.90;99.90;;;;;;4950494;28;20070;-95
2023/12/12 12:55:16;;;;;;;18.38;12.23;;;8.90;99.90;;;;;;4941605;29;20042;-95
2023/12/12 12:57:48;;;;;;;17.48;11.13;;;8.90;99.90;;;;;;4961459;29;20114;-94
2023/12/12 13:00:16;;;;;;;20.17;11.55;;;8.90;99.90;;;;;;4963334;28;20031;-96
2023/12/12 13:02:44;;;;;;;19.90;11.40;;;9.00;99.90;;;;;;4941172;29;20027;-96
2023/12/12 13:05:10;;;;;;;15.70;9.90;;;9.00;99.90;;;;;;4942950;29;20040;-94
2023/12/12 13:07:42;;;;;;;15.32;9.45;;;9.00;99.90;;;;;;4944242;29;20039;-95
2023/12/12 13:10:15;;;;;;;16.45;11.18;;;9.10;99.90;;;;;;4951372;28;20044;-96
2023/12/12 13:12:41;;;;;;;12.25;8.32;;;9.10;99.90;;;;;;4963591;28;20022;-95
2023/12/12 13:15:08;;;;;;;10.13;8.32;;;9.20;99.90;;;;;;4944007;29;20011;-96
2023/12/12 13:17:34;;;;;;;14.02;8.10;;;9.30;99.90;;;;;;4948851;28;20042;-94
2023/12/12 13:20:10;;;;;;;14.95;8.60;;;9.40;99.90;;;;;;4952083;28;20283;-96
2023/12/12 13:22:41;;;;;;;13.00;8.05;;;9.50;99.90;;;;;;4928633;23;20757;-89
2023/12/12 13:25:11;;;;;;;17.60;9.60;;;9.60;99.90;;;;;;4894499;29;20033;-89
2023/12/12 13:27:38;;;;;;;16.60;9.48;;;9.60;99.90;;;;;;4899284;29;20044;-89
2023/12/12 13:30:07;;;;;;;16.38;9.32;;;9.70;99.90;;;;;;4906004;29;20503;-92
2023/12/12 13:32:41;;;;;;;13.38;9.32;;;9.80;99.90;;;;;;4902655;29;20024;-91
2023/12/12 13:35:09;;;;;;;11.40;7.63;;;9.90;99.90;;;;;;4898550;29;20039;-92
2023/12/12 13:37:36;;;;;;;12.35;9.63;;;10.00;99.90;;;;;;4903533;29;20407;-91
2023/12/12 13:40:06;;;;;;;12.95;7.95;;;10.00;99.90;;;;;;4907226;29;20028;-91
2023/12/12 13:42:37;;;;;;;10.40;6.65;;;10.00;99.90;;;;;;4903719;29;20036;-90
2023/12/12 13:45:10;;;;;;;8.50;5.38;;;10.00;99.90;;;;;;4900118;29;20038;-93
2023/12/12 13:47:35;;;;;;;8.20;6.70;;;10.00;99.90;;;;;;4912345;29;20034;-94
2023/12/12 13:50:02;;;;;;;9.43;8.35;;;10.00;99.90;;;;;;4903548;29;20402;-92
2023/12/12 13:52:34;;;;;;;9.68;6.43;;;10.00;99.90;;;;;;4902695;29;20071;-92
2023/12/12 13:55:00;;;;;;;12.07;6.13;;;10.00;99.90;;;;;;4913005;29;20088;-94
2023/12/12 13:57:35;;;;;;;7.45;6.18;;;9.90;99.90;;;;;;4914643;29;20033;-93
2023/12/12 14:00:14;;;;;;;10.95;6.93;;;10.00;99.90;;;;;;4921812;29;20035;-93
2023/12/12 14:02:39;;;;;;;18.17;12.60;;;10.00;99.90;;;;;;4911414;29;20527;-92
2023/12/12 14:05:06;;;;;;;12.10;7.95;;;10.00;99.90;;;;;;4906380;29;20531;-93
2023/12/12 14:07:34;;;;;;;10.50;7.88;;;10.00;99.90;;;;;;4918789;29;20031;-93
2023/12/12 14:10:00;;;;;;;10.77;7.03;;;10.00;99.90;;;;;;4905580;29;20060;-93
2023/12/12 14:12:26;;;;;;;9.20;7.20;;;10.00;99.90;;;;;;4909793;29;20060;-91
2023/12/12 14:14:53;;;;;;;11.30;8.00;;;10.10;99.90;;;;;;4911333;29;20108;-94
2023/12/12 14:17:19;;;;;;;11.38;7.70;;;10.10;99.90;;;;;;4910593;29;20032;-91
2023/12/12 14:19:44;;;;;;;11.55;8.30;;;10.10;99.90;;;;;;4908496;29;20068;-92
2023/12/12 14:22:10;;;;;;;12.10;7.75;;;10.10;99.90;;;;;;4912511;29;20820;-93
2023/12/12 14:24:36;;;;;;;9.68;7.70;;;10.10;99.90;;;;;;4921112;29;20060;-93
2023/12/12 14:27:04;;;;;;;11.63;8.73;;;10.10;99.90;;;;;;4916287;29;20032;-91
2023/12/12 14:29:35;;;;;;;;;;;10.10;99.90;;;;;;4906591;29;20028;-93
2023/12/12 14:32:01;;;;;;;12.75;8.93;;;10.10;99.90;;;;;;4911874;29;19914;-94